Time;durP1;ratioP1;P1;durP2;ratioP2;P2;SDS_P1;SDS_P2;PMS_P1;PMS_P2;Temp;Humidity;BMP_temperature;BMP_pressure;BME280_temperature;BME280_humidity;BME280_pressure;Samples;Min_cycle;Max_cycle;Signal;HPM_P1;HPM_P2
2021/01/15 00:00:31;;;;;;;9.47;4.43;;;;;;;1.74;100.00;98095.47;5022766;28;20651;-72
2021/01/15 00:02:59;;;;;;;6.07;4.00;;;;;;;1.79;100.00;98093.22;5026658;28;20203;-72
2021/01/15 00:05:25;;;;;;;7.33;4.87;;;;;;;1.61;100.00;98096.75;5023339;28;20202;-72
2021/01/15 00:07:52;;;;;;;8.33;4.07;;;;;;;1.54;100.00;98093.88;5023662;28;20305;-72
2021/01/15 00:10:19;;;;;;;8.27;4.60;;;;;;;1.68;100.00;98103.94;5032600;28;20230;-70
2021/01/15 00:12:46;;;;;;;7.83;3.83;;;;;;;1.80;100.00;98104.59;5031611;28;20210;-72
2021/01/15 00:15:13;;;;;;;9.07;4.23;;;;;;;1.56;100.00;98102.47;5033909;28;20722;-71
2021/01/15 00:17:40;;;;;;;8.77;4.00;;;;;;;1.63;100.00;98100.91;5030956;28;20316;-72
2021/01/15 00:20:09;;;;;;;8.80;4.37;;;;;;;1.59;100.00;98102.16;5028230;28;20695;-71
2021/01/15 00:22:40;;;;;;;6.53;3.70;;;;;;;1.60;100.00;98105.63;5015277;28;20211;-70
2021/01/15 00:25:09;;;;;;;5.63;3.30;;;;;;;1.71;100.00;98106.28;5023869;28;20611;-70
2021/01/15 00:27:37;;;;;;;7.80;4.13;;;;;;;1.77;100.00;98110.97;5015998;28;20230;-70
2021/01/15 00:30:05;;;;;;;7.63;3.50;;;;;;;1.65;100.00;98112.13;5026985;28;20284;-70
2021/01/15 00:32:31;;;;;;;8.43;4.00;;;;;;;1.76;100.00;98111.97;5030967;28;20275;-70
2021/01/15 00:34:58;;;;;;;8.93;3.77;;;;;;;1.49;100.00;98114.50;5030132;28;20213;-70
2021/01/15 00:37:26;;;;;;;10.37;3.53;;;;;;;1.74;100.00;98105.19;5024734;28;20226;-72
2021/01/15 00:39:53;;;;;;;5.67;3.33;;;;;;;1.66;100.00;98120.84;5018947;28;20278;-70
2021/01/15 00:42:19;;;;;;;6.87;3.27;;;;;;;1.44;100.00;98108.88;5018704;28;20208;-72
2021/01/15 00:44:46;;;;;;;7.70;3.50;;;;;;;1.39;100.00;98118.16;5027923;28;20217;-70
2021/01/15 00:47:13;;;;;;;8.53;3.83;;;;;;;1.45;100.00;98120.19;5035009;28;20239;-71
2021/01/15 00:49:40;;;;;;;5.03;3.20;;;;;;;1.41;100.00;98119.66;5026241;28;20928;-71
2021/01/15 00:52:07;;;;;;;7.37;3.50;;;;;;;1.37;100.00;98123.53;5025426;28;20206;-71
2021/01/15 00:54:34;;;;;;;10.00;3.73;;;;;;;1.46;100.00;98120.06;5027465;28;20202;-72
2021/01/15 00:57:02;;;;;;;4.53;3.20;;;;;;;1.33;100.00;98122.16;5021665;28;20231;-71
2021/01/15 00:59:28;;;;;;;6.43;3.50;;;;;;;1.23;100.00;98116.06;5032040;28;20222;-71
2021/01/15 01:01:55;;;;;;;4.77;2.87;;;;;;;1.59;100.00;98120.56;5028444;28;20203;-71
2021/01/15 01:04:22;;;;;;;6.93;3.10;;;;;;;1.42;100.00;98118.69;5027607;28;20206;-71
2021/01/15 01:06:49;;;;;;;9.97;2.77;;;;;;;1.53;100.00;98115.88;5019063;28;20206;-71
2021/01/15 01:09:16;;;;;;;6.73;3.00;;;;;;;1.62;100.00;98127.34;5029227;28;20272;-71
2021/01/15 01:11:43;;;;;;;9.40;2.83;;;;;;;1.44;100.00;98123.81;5024448;28;20256;-71
2021/01/15 01:14:10;;;;;;;5.43;3.10;;;;;;;1.46;100.00;98119.22;5023679;28;20210;-71
2021/01/15 01:16:37;;;;;;;7.37;3.20;;;;;;;1.44;100.00;98129.06;5017749;28;20234;-71
2021/01/15 01:19:04;;;;;;;5.33;2.73;;;;;;;1.50;100.00;98134.59;5025250;28;20229;-71
2021/01/15 01:21:32;;;;;;;4.20;2.30;;;;;;;1.43;100.00;98137.94;5018851;28;20213;-72
2021/01/15 01:23:59;;;;;;;3.20;2.20;;;;;;;1.36;100.00;98140.28;5032180;28;20260;-70
2021/01/15 01:26:26;;;;;;;6.87;2.50;;;;;;;1.31;100.00;98145.13;5022914;28;20419;-71
2021/01/15 01:28:53;;;;;;;4.37;2.53;;;;;;;1.43;100.00;98140.56;5020812;28;20722;-73
2021/01/15 01:31:20;;;;;;;7.23;2.50;;;;;;;1.44;100.00;98137.78;5017994;28;20203;-72
2021/01/15 01:33:47;;;;;;;5.10;2.50;;;;;;;1.40;100.00;98138.19;5022259;28;20206;-71
2021/01/15 01:36:14;;;;;;;8.10;2.53;;;;;;;1.45;100.00;98142.06;5025524;28;20210;-72
2021/01/15 01:38:42;;;;;;;4.10;2.53;;;;;;;1.34;100.00;98144.03;5029857;28;20718;-71
2021/01/15 01:41:09;;;;;;;2.67;2.00;;;;;;;1.42;100.00;98141.53;5030501;28;20198;-72
2021/01/15 01:43:35;;;;;;;5.90;2.40;;;;;;;1.31;100.00;98141.66;5030600;28;20206;-71
2021/01/15 01:46:05;;;;;;;5.50;2.60;;;;;;;1.23;100.00;98142.34;5021078;28;20207;-72
2021/01/15 01:48:32;;;;;;;4.83;2.33;;;;;;;1.44;100.00;98143.06;5030575;28;20202;-71
2021/01/15 01:50:59;;;;;;;3.97;2.17;;;;;;;1.27;100.00;98149.00;5025581;28;20206;-71
2021/01/15 01:53:31;;;;;;;3.93;2.60;;;;;;;1.24;100.00;98145.84;5036665;28;20217;-71
2021/01/15 01:55:58;;;;;;;3.57;2.20;;;;;;;1.31;100.00;98152.19;5024409;28;20203;-72
2021/01/15 01:58:25;;;;;;;5.13;2.20;;;;;;;1.14;100.00;98156.38;5018774;28;20227;-71
2021/01/15 02:00:58;;;;;;;6.20;1.90;;;;;;;1.23;100.00;98152.88;5016295;28;20284;-71
2021/01/15 02:03:26;;;;;;;5.30;2.10;;;;;;;1.31;100.00;98166.16;5020690;28;20207;-73
2021/01/15 02:05:53;;;;;;;2.27;1.70;;;;;;;1.29;100.00;98164.66;5033388;28;20240;-72
2021/01/15 02:08:20;;;;;;;5.67;1.80;;;;;;;1.19;100.00;98172.53;5027037;28;20214;-70
2021/01/15 02:10:55;;;;;;;3.17;1.70;;;;;;;1.06;100.00;98174.59;5026569;28;20328;-71
2021/01/15 02:13:27;;;;;;;4.43;1.90;;;;;;;1.03;100.00;98172.25;5018469;28;20206;-71
2021/01/15 02:16:01;;;;;;;3.87;2.10;;;;;;;1.18;100.00;98172.69;5024009;28;20218;-72
2021/01/15 02:18:32;;;;;;;4.40;1.60;;;;;;;1.17;100.00;98176.28;5024522;28;20221;-71
2021/01/15 02:21:35;;;;;;;4.57;2.10;;;;;;;1.25;100.00;98174.63;5028548;28;20249;-71
2021/01/15 02:24:08;;;;;;;3.77;2.03;;;;;;;0.99;100.00;98180.53;5018098;28;20218;-72
2021/01/15 02:26:55;;;;;;;3.57;1.80;;;;;;;1.14;100.00;98182.66;5026626;28;20221;-71
2021/01/15 02:29:24;;;;;;;2.10;1.67;;;;;;;1.14;100.00;98185.28;5015968;28;20230;-73
2021/01/15 02:32:18;;;;;;;3.90;2.13;;;;;;;0.95;100.00;98185.25;5021763;28;20213;-71
2021/01/15 02:35:18;;;;;;;3.67;1.87;;;;;;;0.96;100.00;98181.66;5030941;28;20256;-70
2021/01/15 02:38:00;;;;;;;4.33;2.10;;;;;;;1.19;100.00;98190.09;5013251;28;20702;-71
2021/01/15 02:40:31;;;;;;;4.27;1.80;;;;;;;1.04;100.00;98191.47;5020099;28;20232;-71
2021/01/15 02:42:58;;;;;;;2.97;1.80;;;;;;;1.04;100.00;98187.06;5032735;28;20205;-71
2021/01/15 02:45:25;;;;;;;6.03;2.20;;;;;;;1.06;100.00;98186.91;5021875;28;20237;-71
2021/01/15 02:47:54;;;;;;;1.87;1.53;;;;;;;1.01;100.00;98184.69;5028441;28;20202;-71
2021/01/15 02:50:22;;;;;;;2.03;1.43;;;;;;;0.96;100.00;98193.94;5023656;28;20218;-71
2021/01/15 02:52:49;;;;;;;2.67;1.63;;;;;;;0.93;100.00;98202.13;5020394;28;20205;-71
2021/01/15 02:55:16;;;;;;;2.83;1.70;;;;;;;0.91;100.00;98196.16;5026514;28;20686;-71
2021/01/15 02:57:43;;;;;;;4.60;1.93;;;;;;;0.88;100.00;98199.88;5030737;28;20315;-71
2021/01/15 03:00:12;;;;;;;3.80;2.00;;;;;;;1.04;100.00;98194.09;5026756;28;20314;-71
2021/01/15 03:02:47;;;;;;;2.43;1.60;;;;;;;0.90;100.00;98197.13;5019406;28;20202;-71
2021/01/15 03:05:19;;;;;;;2.70;1.90;;;;;;;0.85;100.00;98197.53;5019724;28;20736;-71
2021/01/15 03:07:47;;;;;;;4.57;1.90;;;;;;;0.81;100.00;98193.53;5018207;28;20217;-71
2021/01/15 03:10:14;;;;;;;5.50;1.70;;;;;;;0.85;100.00;98191.44;5023659;28;20225;-71
2021/01/15 03:12:43;;;;;;;2.17;1.60;;;;;;;0.72;100.00;98199.59;5026951;28;20221;-72
2021/01/15 03:15:11;;;;;;;2.77;1.83;;;;;;;0.81;100.00;98193.53;5024189;28;20209;-70
2021/01/15 03:17:41;;;;;;;3.37;1.60;;;;;;;0.96;100.00;98200.03;5020342;28;20227;-71
2021/01/15 03:20:10;;;;;;;3.83;1.83;;;;;;;0.76;100.00;98215.91;5024146;28;20218;-70
2021/01/15 03:22:39;;;;;;;3.30;1.90;;;;;;;0.80;100.00;98210.25;5019241;28;20728;-69
2021/01/15 03:25:07;;;;;;;4.37;1.97;;;;;;;0.75;100.00;98215.09;5026930;28;20210;-71
2021/01/15 03:27:43;;;;;;;3.53;2.00;;;;;;;0.80;100.00;98210.25;5030129;28;20671;-69
2021/01/15 03:30:12;;;;;;;3.20;1.63;;;;;;;0.70;100.00;98214.66;5018275;28;20230;-70
2021/01/15 03:32:39;;;;;;;3.47;1.87;;;;;;;0.83;100.00;98209.16;5014512;28;20214;-70
2021/01/15 03:35:07;;;;;;;4.90;1.97;;;;;;;0.74;100.00;98220.47;5026593;28;20206;-71
2021/01/15 03:37:34;;;;;;;3.40;1.50;;;;;;;0.80;100.00;98219.91;5028958;28;20237;-69
2021/01/15 03:40:03;;;;;;;3.07;1.70;;;;;;;0.85;100.00;98228.22;5029508;28;20223;-71
2021/01/15 03:42:30;;;;;;;2.37;1.53;;;;;;;0.81;100.00;98225.03;5024280;28;20206;-71
2021/01/15 03:44:56;;;;;;;4.40;2.00;;;;;;;0.61;100.00;98227.78;5024338;28;20770;-70
2021/01/15 03:47:23;;;;;;;3.00;1.93;;;;;;;0.79;100.00;98229.63;5029043;28;20717;-72
2021/01/15 03:49:50;;;;;;;3.07;2.07;;;;;;;0.60;100.00;98239.22;5022730;28;20249;-71
2021/01/15 03:52:17;;;;;;;3.00;1.60;;;;;;;0.70;100.00;98238.28;5030122;28;20228;-70
2021/01/15 03:54:43;;;;;;;3.73;1.90;;;;;;;0.63;100.00;98242.44;5029388;28;20202;-72
2021/01/15 03:57:12;;;;;;;7.10;1.83;;;;;;;0.59;100.00;98230.53;5023519;28;20230;-72
2021/01/15 03:59:39;;;;;;;3.93;2.03;;;;;;;0.64;100.00;98235.38;5023048;28;20850;-71
2021/01/15 04:02:05;;;;;;;5.60;2.10;;;;;;;0.76;100.00;98239.53;5026080;28;20569;-71
2021/01/15 04:04:32;;;;;;;2.47;1.53;;;;;;;0.63;100.00;98236.34;5026266;28;20252;-72
2021/01/15 04:07:00;;;;;;;4.10;1.80;;;;;;;0.57;100.00;98244.75;5027671;28;20213;-70
2021/01/15 04:09:26;;;;;;;2.80;1.80;;;;;;;0.50;100.00;98246.22;5030814;28;20233;-71
2021/01/15 04:11:53;;;;;;;5.50;2.03;;;;;;;0.47;100.00;98254.38;5027706;28;20206;-70
2021/01/15 04:14:21;;;;;;;5.23;1.70;;;;;;;0.53;100.00;98259.09;5024056;28;20246;-72
2021/01/15 04:16:51;;;;;;;2.70;1.90;;;;;;;0.55;100.00;98249.28;5028268;28;20209;-71
2021/01/15 04:19:17;;;;;;;4.47;2.40;;;;;;;0.53;100.00;98262.56;5027184;28;20233;-70
2021/01/15 04:21:44;;;;;;;7.10;2.40;;;;;;;0.39;100.00;98262.06;5034611;28;20670;-72
2021/01/15 04:24:11;;;;;;;3.03;2.20;;;;;;;0.27;100.00;98258.69;5028806;28;20210;-72
2021/01/15 04:26:38;;;;;;;3.33;1.90;;;;;;;0.38;100.00;98269.13;5025874;28;20590;-72
2021/01/15 04:29:05;;;;;;;3.07;1.80;;;;;;;0.27;100.00;98269.19;5028183;28;20229;-72
2021/01/15 04:31:32;;;;;;;3.47;1.97;;;;;;;0.21;100.00;98266.28;5027578;28;20210;-71
2021/01/15 04:33:59;;;;;;;4.57;2.27;;;;;;;0.28;100.00;98270.88;5033964;28;20205;-71
2021/01/15 04:36:26;;;;;;;3.50;2.20;;;;;;;0.39;100.00;98276.03;5027928;28;20198;-71
2021/01/15 04:38:53;;;;;;;3.30;2.20;;;;;;;0.24;100.00;98273.88;5027064;28;20229;-71
2021/01/15 04:41:22;;;;;;;3.93;2.27;;;;;;;0.35;100.00;98277.25;5033154;28;20213;-71
2021/01/15 04:43:53;;;;;;;4.10;2.20;;;;;;;0.23;100.00;98278.31;5032840;28;20264;-71
2021/01/15 04:46:21;;;;;;;5.27;2.30;;;;;;;0.21;100.00;98274.97;5027647;28;20201;-71
2021/01/15 04:48:50;;;;;;;5.10;2.73;;;;;;;0.17;100.00;98286.69;5032023;28;20228;-71
2021/01/15 04:51:20;;;;;;;6.90;2.70;;;;;;;0.24;100.00;98290.47;5028784;28;20202;-71
2021/01/15 04:53:54;;;;;;;3.57;2.53;;;;;;;0.19;100.00;98290.03;5024796;28;20207;-71
2021/01/15 04:56:29;;;;;;;4.67;2.67;;;;;;;0.04;100.00;98293.09;5022251;28;20222;-71
2021/01/15 04:59:00;;;;;;;4.47;2.10;;;;;;;-0.04;100.00;98296.38;5021382;28;20691;-71
2021/01/15 05:01:26;;;;;;;7.27;2.87;;;;;;;-0.07;100.00;98291.41;5023438;28;20202;-71
2021/01/15 05:03:54;;;;;;;3.57;2.47;;;;;;;-0.06;100.00;98303.56;5024848;28;20214;-71
2021/01/15 05:06:21;;;;;;;4.17;2.57;;;;;;;-0.04;100.00;98303.44;5025857;28;20667;-71
2021/01/15 05:08:50;;;;;;;4.90;2.57;;;;;;;0.03;100.00;98305.41;5021346;28;20787;-71
2021/01/15 05:11:17;;;;;;;3.67;2.77;;;;;;;-0.05;100.00;98305.22;5025435;28;20217;-71
2021/01/15 05:13:44;;;;;;;4.60;2.53;;;;;;;-0.01;100.00;98305.78;5019764;28;20207;-71
2021/01/15 05:16:12;;;;;;;3.13;2.40;;;;;;;-0.07;100.00;98312.38;5027621;28;20604;-71
2021/01/15 05:18:39;;;;;;;3.87;2.77;;;;;;;-0.01;100.00;98313.66;5023742;28;20229;-71
2021/01/15 05:21:07;;;;;;;6.40;3.13;;;;;;;0.05;100.00;98319.22;5033701;28;20667;-71
2021/01/15 05:23:33;;;;;;;7.33;3.10;;;;;;;-0.06;100.00;98316.66;5025994;28;20214;-71
2021/01/15 05:26:00;;;;;;;10.87;3.23;;;;;;;0.01;100.00;98322.22;5023361;28;20214;-70
2021/01/15 05:28:27;;;;;;;4.37;2.40;;;;;;;-0.08;100.00;98318.59;5025676;28;20667;-70
2021/01/15 05:30:57;;;;;;;8.90;3.17;;;;;;;-0.16;100.00;98328.03;5018240;28;20204;-70
2021/01/15 05:33:24;;;;;;;3.70;2.30;;;;;;;-0.09;100.00;98335.25;5029208;28;20209;-70
2021/01/15 05:35:52;;;;;;;5.27;2.73;;;;;;;-0.21;100.00;98330.19;5030220;28;20237;-70
2021/01/15 05:38:21;;;;;;;3.13;2.63;;;;;;;-0.22;100.00;98338.22;5027476;28;20229;-70
2021/01/15 05:40:49;;;;;;;4.67;2.87;;;;;;;-0.13;100.00;98344.38;5016481;28;20664;-70
2021/01/15 05:43:21;;;;;;;6.10;2.90;;;;;;;-0.30;100.00;98346.72;5025289;28;20222;-70
2021/01/15 05:46:11;;;;;;;5.13;2.87;;;;;;;-0.28;100.00;98348.25;5021075;28;20210;-70
2021/01/15 05:48:39;;;;;;;5.43;2.63;;;;;;;-0.15;100.00;98348.06;5033022;28;20203;-70
2021/01/15 05:51:06;;;;;;;10.63;3.50;;;;;;;-0.37;100.00;98343.75;5021964;28;20591;-71
2021/01/15 05:53:41;;;;;;;7.37;3.00;;;;;;;-0.50;100.00;98364.03;5026084;28;20217;-70
2021/01/15 05:56:09;;;;;;;3.27;2.73;;;;;;;-0.38;100.00;98363.06;5021545;28;20206;-70
2021/01/15 05:58:36;;;;;;;5.40;3.10;;;;;;;-0.29;100.00;98369.34;5024481;28;20226;-70
2021/01/15 06:01:03;;;;;;;6.40;2.53;;;;;;;-0.41;100.00;98373.78;5021170;28;20667;-70
2021/01/15 06:03:29;;;;;;;4.73;2.80;;;;;;;-0.39;100.00;98376.28;5031593;28;20570;-70
2021/01/15 06:05:56;;;;;;;4.03;2.53;;;;;;;-0.46;100.00;98383.81;5032075;28;20240;-70
2021/01/15 06:08:23;;;;;;;5.07;2.60;;;;;;;-0.44;100.00;98383.69;5038208;28;20729;-72
2021/01/15 06:10:51;;;;;;;3.77;2.20;;;;;;;-0.42;100.00;98387.00;5051371;28;20216;-70
2021/01/15 06:13:37;;;;;;;4.13;2.33;;;;;;;-0.45;100.00;98390.72;5052255;28;20206;-70
2021/01/15 06:16:05;;;;;;;3.67;2.63;;;;;;;-0.56;100.00;98397.75;5043754;28;20217;-70
2021/01/15 06:18:32;;;;;;;3.90;2.53;;;;;;;-0.60;100.00;98412.91;5051378;28;20224;-70
2021/01/15 06:21:08;;;;;;;5.73;2.77;;;;;;;-0.67;100.00;98411.75;5048653;28;20202;-71
2021/01/15 06:23:42;;;;;;;3.87;2.53;;;;;;;-0.71;100.00;98410.31;5049388;28;20201;-70
2021/01/15 06:26:10;;;;;;;6.37;3.07;;;;;;;-0.65;100.00;98417.69;5047597;28;20215;-71
2021/01/15 06:28:38;;;;;;;7.00;2.80;;;;;;;-0.71;100.00;98423.41;5051637;28;20202;-71
2021/01/15 06:31:08;;;;;;;6.80;3.23;;;;;;;-0.67;100.00;98424.84;5039923;28;20222;-72
2021/01/15 06:33:36;;;;;;;5.40;3.07;;;;;;;-0.59;100.00;98435.53;5051663;28;20209;-75
2021/01/15 06:36:05;;;;;;;5.07;2.87;;;;;;;-0.70;100.00;98432.94;5048556;28;20259;-73
2021/01/15 06:38:32;;;;;;;6.63;3.00;;;;;;;-0.73;100.00;98444.63;5052621;28;20217;-74
2021/01/15 06:40:59;;;;;;;6.00;3.13;;;;;;;-0.63;100.00;98441.16;5046320;28;20197;-72
2021/01/15 06:43:30;;;;;;;6.83;3.30;;;;;;;-0.76;100.00;98441.28;5046767;28;20224;-73
2021/01/15 06:46:00;;;;;;;4.90;2.53;;;;;;;-0.84;100.00;98448.09;5040160;28;20215;-76
2021/01/15 06:48:28;;;;;;;6.87;2.90;;;;;;;-0.83;100.00;98444.50;5033173;28;20186;-73
2021/01/15 06:50:56;;;;;;;5.37;2.83;;;;;;;-0.85;100.00;98452.47;5049753;28;20213;-69
2021/01/15 06:53:26;;;;;;;5.27;2.53;;;;;;;-0.91;100.00;98452.97;5038019;28;20206;-71
2021/01/15 06:55:54;;;;;;;5.20;3.17;;;;;;;-0.73;100.00;98455.13;5051104;28;20233;-74
2021/01/15 06:58:25;;;;;;;5.50;3.03;;;;;;;-0.77;100.00;98464.16;5040086;28;20226;-77
2021/01/15 07:01:18;;;;;;;5.67;3.30;;;;;;;-0.91;100.00;98468.69;5034596;28;20194;-73
2021/01/15 07:04:09;;;;;;;6.23;3.57;;;;;;;-0.95;100.00;98464.63;5033776;28;20232;-76
2021/01/15 07:06:37;;;;;;;3.83;2.70;;;;;;;-0.97;100.00;98473.53;5039331;28;20586;-74
2021/01/15 07:09:05;;;;;;;6.33;3.00;;;;;;;-1.06;100.00;98472.47;5048266;28;20717;-72
2021/01/15 07:11:33;;;;;;;9.33;3.23;;;;;;;-1.08;100.00;98473.53;5042620;28;20213;-73
2021/01/15 07:14:01;;;;;;;10.30;4.03;;;;;;;-1.16;100.00;98484.59;5037818;28;20213;-73
2021/01/15 07:16:33;;;;;;;7.40;3.40;;;;;;;-1.17;100.00;98481.28;5048267;28;20593;-74
2021/01/15 07:19:14;;;;;;;8.73;3.23;;;;;;;-1.14;100.00;98487.13;5037710;28;20247;-71
2021/01/15 07:21:58;;;;;;;9.77;4.00;;;;;;;-1.13;100.00;98486.16;5046248;28;20193;-71
2021/01/15 07:24:29;;;;;;;5.90;3.03;;;;;;;-1.12;100.00;98493.91;5045391;28;20240;-71
2021/01/15 07:26:56;;;;;;;7.70;3.53;;;;;;;-1.11;100.00;98492.94;5051325;28;20213;-75
2021/01/15 07:29:23;;;;;;;9.07;4.00;;;;;;;-1.13;100.00;98494.84;5052273;28;20720;-73
2021/01/15 07:31:55;;;;;;;12.23;4.80;;;;;;;-1.11;100.00;98492.94;5049963;28;20215;-80
2021/01/15 07:34:24;;;;;;;7.53;3.87;;;;;;;-1.02;100.00;98497.47;5041252;28;20202;-78
2021/01/15 07:36:51;;;;;;;10.73;4.47;;;;;;;-1.02;100.00;98496.63;5048006;28;20208;-76
2021/01/15 07:39:19;;;;;;;9.77;4.27;;;;;;;-0.81;100.00;98501.06;5048484;28;20288;-75
2021/01/15 07:41:49;;;;;;;7.03;3.53;;;;;;;-0.81;100.00;98495.81;5046692;28;20323;-76
2021/01/15 07:44:35;;;;;;;7.87;3.83;;;;;;;-0.65;100.00;98501.53;5048904;28;20231;-80
2021/01/15 07:47:03;;;;;;;6.13;3.83;;;;;;;-0.73;100.00;98507.53;5046599;28;20663;-73
2021/01/15 07:49:46;;;;;;;6.63;3.80;;;;;;;-0.65;100.00;98514.63;5046432;28;20249;-80
2021/01/15 07:52:14;;;;;;;9.23;4.60;;;;;;;-0.60;100.00;98515.13;5052849;28;20262;-82
2021/01/15 07:55:00;;;;;;;7.50;3.97;;;;;;;-0.60;100.00;98515.13;5057358;28;20206;-79
2021/01/15 07:57:28;;;;;;;9.13;4.23;;;;;;;-0.34;100.00;98523.56;5053839;28;20689;-79
2021/01/15 07:59:55;;;;;;;11.27;4.30;;;;;;;-0.38;100.00;98522.13;5050735;28;21817;-74
2021/01/15 08:02:22;;;;;;;9.90;4.53;;;;;;;-0.44;100.00;98526.06;5051666;28;20214;-76
2021/01/15 08:04:50;;;;;;;8.07;3.90;;;;;;;-0.32;100.00;98525.13;5049382;28;20202;-75
2021/01/15 08:07:27;;;;;;;6.43;3.60;;;;;;;-0.26;100.00;98527.25;5048557;28;20193;-78
2021/01/15 08:09:53;;;;;;;8.33;4.43;;;;;;;-0.22;100.00;98537.50;5043628;28;20231;-77
2021/01/15 08:12:21;;;;;;;12.20;4.97;;;;;;;-0.26;100.00;98539.53;5049391;28;20197;-79
2021/01/15 08:14:47;;;;;;;7.93;4.47;;;;;;;-0.42;100.00;98544.31;5044580;28;20213;-77
2021/01/15 08:17:15;;;;;;;9.60;4.93;;;;;;;-0.22;100.00;98550.63;5046413;28;20233;-76
2021/01/15 08:19:43;;;;;;;8.33;4.47;;;;;;;-0.26;100.00;98550.84;5049203;28;20238;-74
2021/01/15 08:22:14;;;;;;;9.83;4.70;;;;;;;-0.14;100.00;98552.50;5048783;28;20231;-74
2021/01/15 08:24:44;;;;;;;10.30;4.83;;;;;;;-0.13;100.00;98562.06;5050191;28;20562;-74
2021/01/15 08:27:16;;;;;;;8.90;5.30;;;;;;;-0.17;100.00;98561.59;5050486;28;20736;-76
2021/01/15 08:29:45;;;;;;;8.53;4.17;;;;;;;-0.02;100.00;98566.44;5048691;28;20229;-76
2021/01/15 08:32:13;;;;;;;10.37;5.20;;;;;;;-0.15;100.00;98571.00;5046357;28;20201;-77
2021/01/15 08:34:40;;;;;;;8.70;4.57;;;;;;;-0.08;100.00;98575.66;5048792;28;20218;-77
2021/01/15 08:37:09;;;;;;;9.77;4.93;;;;;;;-0.10;100.00;98581.97;5045159;28;20206;-76
2021/01/15 08:39:46;;;;;;;10.67;5.60;;;;;;;-0.02;100.00;98590.03;5048417;28;20689;-76
2021/01/15 08:42:14;;;;;;;9.43;4.57;;;;;;;0.11;100.00;98596.00;5032805;28;20205;-74
2021/01/15 08:44:42;;;;;;;7.23;4.47;;;;;;;-0.11;100.00;98591.59;5041432;28;20231;-72
2021/01/15 08:47:11;;;;;;;7.90;4.90;;;;;;;-0.16;100.00;98591.13;5046838;28;20209;-76
2021/01/15 08:49:38;;;;;;;13.80;5.03;;;;;;;0.08;100.00;98596.22;5049850;28;20229;-74
2021/01/15 08:52:05;;;;;;;9.50;5.10;;;;;;;0.19;100.00;98599.69;5041593;28;21720;-71
2021/01/15 08:54:36;;;;;;;9.60;5.27;;;;;;;-0.09;100.00;98604.59;5041889;28;20284;-71
2021/01/15 08:57:03;;;;;;;12.20;5.00;;;;;;;0.23;100.00;98608.13;5041432;28;20195;-72
2021/01/15 08:59:31;;;;;;;9.20;4.97;;;;;;;0.07;100.00;98615.56;5048723;28;20287;-72
2021/01/15 09:01:59;;;;;;;9.03;4.67;;;;;;;0.12;100.00;98621.28;5049660;28;20296;-73
2021/01/15 09:04:27;;;;;;;10.20;4.43;;;;;;;0.39;100.00;98621.69;5043827;28;20251;-74
2021/01/15 09:06:55;;;;;;;7.80;4.30;;;;;;;0.12;100.00;98621.28;5047771;28;20210;-73
2021/01/15 09:09:23;;;;;;;8.57;4.87;;;;;;;0.14;100.00;98629.84;5048902;28;20225;-73
2021/01/15 09:11:52;;;;;;;8.93;5.07;;;;;;;0.20;100.00;98627.59;5051437;28;20205;-74
2021/01/15 09:14:20;;;;;;;9.37;5.00;;;;;;;0.32;100.00;98631.84;5040307;28;20561;-75
2021/01/15 09:16:48;;;;;;;7.40;4.47;;;;;;;0.69;100.00;98632.34;5053594;28;20217;-74
2021/01/15 09:19:16;;;;;;;9.73;5.03;;;;;;;0.42;100.00;98631.97;5043614;28;20222;-74
2021/01/15 09:21:49;;;;;;;9.60;4.93;;;;;;;0.42;100.00;98642.47;5049926;28;20566;-77
2021/01/15 09:24:17;;;;;;;8.00;4.90;;;;;;;0.74;100.00;98638.06;5048826;28;20281;-79
2021/01/15 09:26:45;;;;;;;6.73;4.23;;;;;;;0.83;100.00;98637.31;5054724;28;20297;-75
2021/01/15 09:29:13;;;;;;;8.17;4.73;;;;;;;0.94;100.00;98646.00;5054484;28;20232;-73
2021/01/15 09:31:40;;;;;;;10.67;5.17;;;;;;;0.64;100.00;98651.13;5053583;28;20682;-73
2021/01/15 09:34:10;;;;;;;11.20;5.00;;;;;;;1.03;100.00;98647.84;5048174;28;20210;-76
2021/01/15 09:36:40;;;;;;;9.10;5.20;;;;;;;1.01;100.00;98649.78;5050544;28;20198;-76
2021/01/15 09:39:07;;;;;;;9.27;4.43;;;;;;;0.89;100.00;98658.69;5053097;28;20673;-76
2021/01/15 09:41:34;;;;;;;11.87;4.57;;;;;;;1.49;100.00;98653.56;5047922;28;20224;-75
2021/01/15 09:44:00;;;;;;;9.17;4.83;;;;;;;1.16;100.00;98656.41;5050190;28;20286;-76
2021/01/15 09:46:29;;;;;;;9.80;4.63;;;;;;;1.61;99.48;98660.44;5052054;28;20236;-74
2021/01/15 09:48:57;;;;;;;12.57;5.13;;;;;;;0.90;100.00;98664.75;5056049;28;20226;-74
2021/01/15 09:51:25;;;;;;;9.13;4.77;;;;;;;0.85;100.00;98673.03;5054210;28;20202;-74
2021/01/15 09:53:52;;;;;;;12.47;5.30;;;;;;;1.07;100.00;98672.94;5053111;28;20288;-76
2021/01/15 09:56:29;;;;;;;13.40;4.77;;;;;;;1.46;100.00;98668.78;5048941;28;20206;-77
2021/01/15 09:58:57;;;;;;;8.03;4.23;;;;;;;1.43;100.00;98682.22;5052123;28;20762;-74
2021/01/15 10:01:24;;;;;;;7.83;4.47;;;;;;;1.39;100.00;98676.38;5049554;28;20202;-74
2021/01/15 10:03:52;;;;;;;10.27;5.30;;;;;;;1.09;100.00;98686.78;5052245;28;20202;-75
2021/01/15 10:06:20;;;;;;;8.03;4.43;;;;;;;1.16;100.00;98682.69;5045958;28;20260;-74
2021/01/15 10:08:47;;;;;;;7.50;4.70;;;;;;;0.93;100.00;98682.91;5049257;28;20225;-73
2021/01/15 10:11:22;;;;;;;9.63;4.57;;;;;;;1.12;100.00;98683.06;5050494;28;20674;-73
2021/01/15 10:13:49;;;;;;;9.97;4.73;;;;;;;1.12;100.00;98683.91;5051621;28;20209;-74
2021/01/15 10:16:16;;;;;;;12.73;5.00;;;;;;;1.55;99.02;98689.06;5052141;28;20243;-74
2021/01/15 10:18:43;;;;;;;10.13;5.60;;;;;;;1.02;100.00;98688.22;5049950;28;20236;-73
2021/01/15 10:21:11;;;;;;;6.83;4.50;;;;;;;1.40;100.00;98685.94;5041786;28;20216;-74
2021/01/15 10:23:38;;;;;;;11.83;5.63;;;;;;;1.19;100.00;98695.59;5053121;28;20212;-78
2021/01/15 10:26:05;;;;;;;9.17;4.73;;;;;;;1.52;100.00;98690.16;5052635;28;20198;-82
2021/01/15 10:28:33;;;;;;;8.90;5.33;;;;;;;1.58;99.34;98692.25;5052976;28;20205;-76
2021/01/15 10:30:59;;;;;;;8.87;5.23;;;;;;;1.11;100.00;98695.38;5048980;28;20924;-87
2021/01/15 10:33:26;;;;;;;11.20;5.60;;;;;;;1.44;100.00;98710.16;5055312;28;20205;-80
2021/01/15 10:35:54;;;;;;;9.03;5.40;;;;;;;1.57;100.00;98695.88;5039539;28;20283;-77
2021/01/15 10:38:21;;;;;;;9.87;4.67;;;;;;;1.52;99.75;98692.78;5052574;28;20771;-81
2021/01/15 10:40:48;;;;;;;8.60;4.87;;;;;;;2.23;95.48;98694.53;5049077;28;20259;-75
2021/01/15 10:43:15;;;;;;;10.43;5.37;;;;;;;1.53;98.16;98693.63;5052208;28;20216;-75
2021/01/15 10:45:42;;;;;;;9.20;4.80;;;;;;;1.97;95.65;98688.91;5047857;28;20220;-77
2021/01/15 10:48:09;;;;;;;10.40;4.83;;;;;;;2.00;96.56;98691.28;5048060;28;20198;-80
2021/01/15 10:50:35;;;;;;;11.47;5.23;;;;;;;1.74;97.55;98697.91;5048103;28;20236;-78
2021/01/15 10:53:02;;;;;;;9.60;5.53;;;;;;;1.53;99.38;98696.25;5051071;28;20209;-77
2021/01/15 10:55:30;;;;;;;10.33;5.37;;;;;;;1.73;97.50;98696.25;5052622;28;20288;-77
2021/01/15 10:57:57;;;;;;;10.57;4.60;;;;;;;1.69;97.19;98686.13;5050589;28;20213;-79
2021/01/15 11:00:24;;;;;;;9.47;4.97;;;;;;;2.07;96.47;98691.56;5053927;28;20633;-78
2021/01/15 11:02:51;;;;;;;9.17;4.87;;;;;;;2.00;96.11;98690.44;5044866;28;20202;-79
2021/01/15 11:05:18;;;;;;;11.23;5.57;;;;;;;1.79;96.88;98697.53;5042680;28;20263;-79
2021/01/15 11:07:46;;;;;;;10.50;6.33;;;;;;;2.23;95.30;98699.81;5043304;28;20209;-76
2021/01/15 11:10:13;;;;;;;9.70;5.70;;;;;;;2.58;89.67;98708.13;5046489;28;20477;-76
2021/01/15 11:12:41;;;;;;;12.83;5.83;;;;;;;2.16;92.89;98702.16;5047640;28;20217;-76
2021/01/15 11:15:09;;;;;;;7.97;4.40;;;;;;;2.68;89.33;98707.19;5048655;28;20258;-76
2021/01/15 11:17:38;;;;;;;10.10;5.17;;;;;;;2.47;91.20;98697.69;5050231;28;20225;-78
2021/01/15 11:20:07;;;;;;;11.20;5.73;;;;;;;2.19;93.15;98698.44;5054266;28;20232;-78
2021/01/15 11:22:34;;;;;;;11.57;5.37;;;;;;;1.97;94.05;98699.44;5044635;28;20193;-76
2021/01/15 11:25:01;;;;;;;10.97;6.10;;;;;;;2.02;93.59;98706.91;5052464;28;20251;-76
2021/01/15 11:27:29;;;;;;;9.77;5.57;;;;;;;2.41;93.66;98695.59;5047206;28;20229;-75
2021/01/15 11:29:56;;;;;;;12.40;4.77;;;;;;;2.87;89.60;98695.84;5049400;28;20305;-75
2021/01/15 11:32:23;;;;;;;9.03;5.07;;;;;;;2.24;88.93;98704.94;5045072;28;20194;-77
2021/01/15 11:34:51;;;;;;;9.07;4.57;;;;;;;2.30;86.56;98707.06;5049631;28;20661;-75
2021/01/15 11:37:17;;;;;;;10.47;4.87;;;;;;;2.54;87.13;98712.03;5043948;28;20288;-73
2021/01/15 11:39:44;;;;;;;8.37;4.63;;;;;;;2.54;86.30;98704.94;5047895;28;20584;-75